Latest Coastal Weather Observations for Whyalla

IDS60701

Issued at 10:51 am CDT Sunday 21 December 2014 (issued every 10 minutes, with the page automatically refreshed every 10 minutes)

About coastal observations | Map of coastal stations | Coastal observations for SA | Marine services | Other Formats
Station Details ID: 018120 Name: WHYALLA AERO Lat: -33.05 Lon: 137.52 Height: 6.5 m
Data from the previous 72 hours. | See also: Recent months at Whyalla
Date/Time
CDT
Temp

°C
Wind Pressure Rain
since 9am
mm
Weather Cloud Vis
km
Sea
Height
m
Swell
Dir
 
Speed
knots
Gust
knots
hPa Trend Height
m
Period
s
Dir
21/10:30am 32.5 N 14 19 1010.7 - 0.0 - - 10 - - - -
21/10:00am 31.8 N 12 17 1011.0 - 0.0 - - 10 - - - -
21/09:30am 30.6 N 11 14 1011.2 - 0.0 - - 10 - - - -
21/09:00am 29.2 N 10 13 1011.1 - 0.0 - - 10 - - - -
21/08:30am 25.7 N 3 5 1011.1 - 0.0 - - 10 - - - -
21/08:00am 23.2 CALM 0 0 1011.1 - 0.0 - - 10 - - - -
21/07:30am 20.2 NNW 4 5 1010.7 - 0.0 - - 10 - - - -
21/07:00am 17.2 NNW 4 6 1010.4 - 0.0 - - 10 - - - -
21/06:30am 14.8 NNW 6 7 1010.0 - 0.0 - - 10 - - - -
21/06:00am 14.3 NW 6 8 1009.9 - 0.0 - - 10 - - - -
21/05:30am 14.7 NW 5 6 1009.6 - 0.0 - - 10 - - - -
21/05:00am 15.2 WNW 4 5 1009.5 - 0.0 - - 10 - - - -
21/04:30am 15.9 N 5 7 1009.6 - 0.0 - - 10 - - - -
21/04:00am 16.3 NNW 5 5 1009.6 - 0.0 - - 10 - - - -
21/03:30am 16.8 CALM 0 3 1009.6 - 0.0 - - 10 - - - -
21/03:00am 17.2 W 3 4 1010.0 - 0.0 - - 10 - - - -
21/02:30am 17.1 NNW 3 5 1010.2 - 0.0 - - 10 - - - -
21/02:00am 17.9 SW 5 5 1010.8 - 0.0 - - 10 - - - -
21/01:30am 18.3 WSW 5 5 1010.8 - 0.0 - - 10 - - - -
21/01:00am 19.0 WSW 3 4 1010.9 - 0.0 - - 10 - - - -
21/12:30am 19.4 SW 6 7 1011.1 - 0.0 - - 10 - - - -
21/12:00am 20.0 SSW 5 6 1011.1 - 0.0 - - 10 - - - -
 
Date/Time
CDT
Temp

°C
Wind Pressure Rain
since 9am
mm
Weather Cloud Vis
km
Sea
Height
m
Swell
Dir
 
Speed
knots
Gust
knots
hPa Trend Height
m
Period
s
Dir
20/11:30pm 20.6 S 5 6 1011.6 - 0.0 - - 10 - - - -
20/11:00pm 21.3 SSW 6 8 1011.7 - 0.0 - - 10 - - - -
20/10:30pm 22.1 SSW 8 9 1011.8 - 0.0 - - 10 - - - -
20/10:00pm 22.3 SSW 9 13 1011.7 - 0.0 - - 10 - - - -
20/09:30pm 22.5 SSW 9 11 1011.6 - 0.0 - - 10 - - - -
20/09:00pm 22.6 S 10 13 1011.7 - 0.0 - - 10 - - - -
20/08:30pm 23.0 S 11 15 1011.7 - 0.0 - - 10 - - - -
20/08:00pm 24.1 S 12 15 1011.6 - 0.0 - - 10 - - - -
20/07:30pm 25.1 S 11 14 1011.5 - 0.0 - - 10 - - - -
20/07:00pm 27.7 SSE 9 11 1011.4 - 0.0 - - 10 - - - -
20/06:30pm 28.2 SSE 9 12 1011.3 - 0.0 - - 10 - - - -
20/06:00pm 28.4 SSE 11 14 1011.4 - 0.0 - - 10 - - - -
20/05:30pm 28.6 SE 11 15 1011.6 - 0.0 - - 10 - - - -
20/05:00pm 29.4 SE 12 15 1011.7 - 0.0 - - 10 - - - -
20/04:30pm 27.9 SE 13 17 1012.2 - 0.0 - - 10 - - - -
20/04:00pm 28.1 SE 12 16 1012.6 - 0.0 - - 10 - - - -
20/03:30pm 29.5 SE 11 14 1013.1 - 0.0 - - 10 - - - -
20/03:00pm 29.1 SE 11 15 1013.5 - 0.0 - - 10 - - - -
20/02:30pm 28.1 SE 11 14 1014.1 - 0.0 - - 10 - - - -
20/02:00pm 28.6 SE 10 13 1014.6 - 0.0 - - 10 - - - -
20/01:30pm 27.7 SE 10 13 1015.1 - 0.0 - - 10 - - - -
20/01:00pm 28.0 SSE 10 12 1015.5 - 0.0 - - 10 - - - -
20/12:30pm 26.4 SE 9 12 1015.9 - 0.0 - - 10 - - - -
20/12:00pm 25.8 SE 9 13 1016.2 - 0.0 - - 10 - - - -
20/11:30am 25.3 SE 8 11 1016.7 - 0.0 - - 10 - - - -
20/11:00am 24.3 SSE 7 10 1016.8 - 0.0 - - 10 - - - -
20/10:30am 24.7 ESE 7 10 1017.2 - 0.0 - - 10 - - - -
20/10:00am 23.5 S 4 8 1017.5 - 0.0 - - 10 - - - -
20/09:30am 23.0 SSE 5 8 1017.8 - 0.0 - - 10 - - - -
20/09:00am 21.9 ESE 3 7 1018.0 - 0.0 - - 10 - - - -
20/08:30am 21.7 SE 2 6 1017.7 - 0.0 - - 10 - - - -
20/08:00am 20.2 SSW 4 5 1017.6 - 0.0 - - 10 - - - -
20/07:30am 18.5 W 5 6 1017.7 - 0.0 - - 10 - - - -
20/07:00am 15.8 W 5 7 1017.5 - 0.0 - - 10 - - - -
20/06:30am 14.3 SSW 4 5 1017.3 - 0.0 - - 10 - - - -
20/06:00am 14.9 SSE 5 6 1016.9 - 0.0 - - 10 - - - -
20/05:30am 15.7 S 4 5 1017.1 - 0.0 - - 10 - - - -
20/05:00am 16.8 SSE 6 8 1016.9 - 0.0 - - 10 - - - -
20/04:30am 17.1 SSE 7 9 1016.9 - 0.0 - - 10 - - - -
20/04:00am 17.2 SSE 6 7 1016.9 - 0.0 - - 10 - - - -
20/03:30am 17.5 SSE 7 10 1016.8 - 0.0 - - 10 - - - -
20/03:00am 17.7 SSE 7 11 1017.1 - 0.0 - - 10 - - - -
20/02:30am 17.9 SE 8 11 1017.1 - 0.0 - - 10 - - - -
20/02:00am 18.0 SE 8 11 1017.6 - 0.0 - - 10 - - - -
20/01:30am 18.4 SE 10 15 1017.9 - 0.0 - - 10 - - - -
20/01:00am 18.9 SSE 11 15 1018.4 - 0.0 - - 10 - - - -
20/12:30am 19.0 SSE 10 15 1018.6 - 0.0 - - 10 - - - -
20/12:00am 19.3 SSE 11 15 1018.8 - 0.0 - - 10 - - - -
 
Date/Time
CDT
Temp

°C
Wind Pressure Rain
since 9am
mm
Weather Cloud Vis
km
Sea
Height
m
Swell
Dir
 
Speed
knots
Gust
knots
hPa Trend Height
m
Period
s
Dir
19/11:30pm 19.7 SSE 12 16 1018.9 - 0.0 - - 10 - - - -
19/11:00pm 20.0 SSE 11 17 1019.1 - 0.0 - - 10 - - - -
19/10:30pm 19.9 S 13 17 1019.3 - 0.0 - - 10 - - - -
19/10:00pm 20.0 S 14 19 1019.0 - 0.0 - - 10 - - - -
19/09:30pm 20.2 S 15 19 1018.9 - 0.0 - - 10 - - - -
19/09:00pm 20.1 S 15 21 1018.6 - 0.0 - - 10 - - - -
19/08:30pm 20.1 S 17 23 1018.6 - 0.0 - - 10 - - - -
19/08:00pm 20.6 S 17 24 1018.6 - 0.0 - - 10 - - - -
19/07:30pm 20.9 S 17 23 1018.4 - 0.0 - - 10 - - - -
19/07:00pm 21.2 S 18 24 1018.0 - 0.0 - - 10 - - - -
19/06:30pm 21.9 S 18 25 1017.9 - 0.0 - - 10 - - - -
19/06:00pm 22.4 S 18 23 1017.7 - 0.0 - - 10 - - - -
19/05:30pm 22.9 S 17 23 1017.7 - 0.0 - - 10 - - - -
19/05:00pm 23.0 S 17 21 1017.8 - 0.0 - - 10 - - - -
19/04:30pm 22.5 S 16 20 1018.2 - 0.0 - - 10 - - - -
19/04:00pm 22.8 S 15 19 1018.5 - 0.0 - - 10 - - - -
19/03:30pm 22.6 S 15 21 1018.7 - 0.0 - - 10 - - - -
19/03:00pm 22.7 S 13 18 1019.0 - 0.0 - - 10 - - - -
19/02:30pm 22.3 SSE 12 17 1019.3 - 0.0 - - 10 - - - -
19/02:00pm 22.1 SSE 11 16 1019.4 - 0.0 - - 10 - - - -
19/01:30pm 21.5 SSE 12 17 1019.7 - 0.0 - - 10 - - - -
19/01:00pm 20.9 S 13 17 1019.9 - 0.0 - - 10 - - - -
19/12:30pm 20.4 SSE 11 17 1020.3 - 0.0 - - 10 - - - -
19/12:00pm 19.8 SSE 11 17 1020.3 - 0.0 - - 10 - - - -
19/11:30am 19.4 SSE 10 16 1020.3 - 0.0 - - 10 - - - -
19/11:00am 18.8 SE 9 13 1020.4 - 0.0 - - 10 - - - -
19/10:30am 19.3 SE 9 13 1020.5 - 0.0 - - 10 - - - -
19/10:00am 18.6 SE 9 14 1020.6 - 0.0 - - 10 - - - -
19/09:30am 18.7 ESE 9 13 1020.3 - 0.0 - - 10 - - - -
19/09:00am 18.4 SE 11 16 1020.1 - 0.0 - - 10 - - - -
19/08:30am 18.4 SE 10 15 1019.9 - 0.0 - Partly cloudy 10 - - - -
19/08:00am 18.3 SE 11 16 1019.4 - 0.0 - Partly cloudy 10 - - - -
19/07:30am 17.0 SSE 10 15 1018.9 - 0.0 - Partly cloudy 10 - - - -
19/07:00am 17.0 SE 10 15 1018.6 - 0.0 - Cloudy 10 - - - -
19/06:30am 17.1 SSE 8 13 1018.3 - 0.0 - Cloudy 10 - - - -
19/06:00am 16.6 SSE 7 10 1018.0 - 0.0 - Partly cloudy 10 - - - -
19/05:30am 16.5 SSE 10 13 1017.7 - 0.0 - Partly cloudy 10 - - - -
19/05:00am 16.8 SSE 10 16 1017.5 - 0.0 - Partly cloudy 10 - - - -
19/04:30am 16.8 SSE 11 16 1017.3 - 0.0 - Partly cloudy 10 - - - -
19/04:00am 16.8 SSE 10 14 1017.1 - 0.0 - - 10 - - - -
19/03:30am 16.9 SSE 10 15 1017.2 - 0.0 - - 10 - - - -
19/03:00am 17.3 SSE 10 17 1017.1 - 0.0 - Cloudy 10 - - - -
19/02:30am 17.3 S 9 12 1017.2 - 0.0 - Partly cloudy 10 - - - -
19/02:00am 17.6 S 11 13 1017.4 - 0.0 - Partly cloudy 10 - - - -
19/01:30am 17.8 S 12 16 1017.5 - 0.0 - Partly cloudy 10 - - - -
19/01:00am 18.0 S 12 17 1017.5 - 0.0 - Partly cloudy 10 - - - -
19/12:30am 18.3 S 13 19 1017.6 - 0.0 - Partly cloudy 10 - - - -
19/12:00am 18.2 S 12 16 1017.6 - 0.0 - Partly cloudy 10 - - - -
 
Date/Time
CDT
Temp

°C
Wind Pressure Rain
since 9am
mm
Weather Cloud Vis
km
Sea
Height
m
Swell
Dir
 
Speed
knots
Gust
knots
hPa Trend Height
m
Period
s
Dir
18/11:30pm 18.5 S 15 19 1017.4 - 0.0 - Partly cloudy 10 - - - -
18/11:00pm 18.6 S 15 20 1017.2 - 0.0 - Cloudy 10 - - - -
18/10:30pm 18.7 S 15 21 1017.0 - 0.0 - Partly cloudy 10 - - - -
18/10:00pm 18.8 S 15 20 1016.9 - 0.0 - Partly cloudy 10 - - - -
18/09:30pm 19.2 S 16 21 1016.5 - 0.0 - Partly cloudy 10 - - - -
18/09:00pm 19.1 S 15 21 1016.2 - 0.0 - Mostly clear 10 - - - -
18/08:30pm 19.2 S 17 23 1015.8 - 0.0 - Partly cloudy 10 - - - -
18/08:00pm 19.7 S 18 25 1015.6 - 0.0 - Partly cloudy 10 - - - -
18/07:30pm 20.1 SSW 19 24 1015.0 - 0.0 - Partly cloudy 10 - - - -
18/07:00pm 20.7 S 18 24 1014.5 - 0.0 - Partly cloudy 10 - - - -
18/06:30pm 21.4 S 19 26 1013.9 - 0.0 - - 10 - - - -
18/06:00pm 21.5 S 20 29 1013.4 - 0.0 - - 10 - - - -
18/05:30pm 22.0 S 19 27 1013.2 - 0.0 - - 10 - - - -
18/05:00pm 22.4 S 17 23 1013.0 - 0.0 - - 10 - - - -
18/04:30pm 23.1 SSE 15 23 1013.1 - 0.0 - - 10 - - - -
18/04:00pm 23.8 SSE 15 23 1013.0 - 0.0 - - 10 - - - -
18/03:30pm 22.8 SSE 14 20 1012.8 - 0.0 - - 10 - - - -
18/03:00pm 22.5 SE 14 20 1012.8 - 0.0 - - 10 - - - -
18/02:30pm 23.2 SE 13 18 1012.7 - 0.0 - - 10 - - - -
18/02:00pm 22.9 SE 14 19 1012.4 - 0.0 - - 10 - - - -
18/01:30pm 22.7 SSE 14 20 1012.6 - 0.0 - - 10 - - - -
18/01:00pm 22.3 SSE 14 20 1012.7 - 0.0 - - 10 - - - -
18/12:30pm 21.9 SSE 12 17 1013.0 - 0.0 - - 10 - - - -
18/12:00pm 22.0 SSE 13 18 1012.9 - 0.0 - - 10 - - - -
18/11:30am 22.4 SSE 13 16 1012.9 - 0.0 - - 10 - - - -
18/11:00am 22.0 SE 9 15 1012.7 - 0.0 - - 10 - - - -

Other Formats:

Comma delimited format used in spreadsheet applications
http://www.bom.gov.au/fwo/IDS60701/IDS60701.95664.axf

JavaScript Object Notation format (JSON) in row-major order
http://www.bom.gov.au/fwo/IDS60701/IDS60701.95664.json